Time;durP1;ratioP1;P1;durP2;ratioP2;P2;SDS_P1;SDS_P2;PMS_P1;PMS_P2;Temp;Humidity;BMP_temperature;BMP_pressure;BME280_temperature;BME280_humidity;BME280_pressure;Samples;Min_cycle;Max_cycle;Signal;HPM_P1;HPM_P2
2021/01/23 00:01:44;;;;;;;0.43;0.40;;;;;;;-0.30;100.00;93876.44;4238692;33;20371;-77
2021/01/23 00:04:10;;;;;;;1.05;0.40;;;;;;;-0.25;100.00;93883.84;4236962;33;20290;-76
2021/01/23 00:06:36;;;;;;;0.37;0.30;;;;;;;-0.25;100.00;93883.84;4230127;33;20257;-77
2021/01/23 00:09:01;;;;;;;0.40;0.30;;;;;;;-0.27;100.00;93886.44;4228508;33;20258;-78
2021/01/23 00:11:27;;;;;;;0.25;0.20;;;;;;;-0.13;100.00;93895.09;4238892;33;20291;-78
2021/01/23 00:13:52;;;;;;;0.10;0.10;;;;;;;-0.25;100.00;93886.38;4228306;34;20235;-77
2021/01/23 00:16:18;;;;;;;0.13;0.13;;;;;;;-0.20;100.00;93892.03;4222692;33;20244;-75
2021/01/23 00:18:44;;;;;;;0.10;0.10;;;;;;;-0.20;100.00;93894.59;4228581;34;20244;-78
2021/01/23 00:21:09;;;;;;;0.20;0.20;;;;;;;-0.16;100.00;93901.16;4229196;33;20242;-75
2021/01/23 00:23:35;;;;;;;0.17;0.10;;;;;;;-0.15;100.00;93907.06;4232790;33;20243;-75
2021/01/23 00:26:00;;;;;;;0.10;0.10;;;;;;;-0.14;100.00;93899.38;4227133;34;20256;-75
2021/01/23 00:28:26;;;;;;;0.45;0.35;;;;;;;-0.20;100.00;93914.13;4228107;33;20252;-75
2021/01/23 00:30:52;;;;;;;0.10;0.10;;;;;;;-0.27;100.00;93914.41;4237172;33;20599;-75
2021/01/23 00:33:17;;;;;;;0.20;0.10;;;;;;;-0.15;100.00;93915.53;4234917;33;20656;-75
2021/01/23 00:35:43;;;;;;;0.35;0.10;;;;;;;-0.04;100.00;93925.16;4241635;33;20648;-75
2021/01/23 00:38:09;;;;;;;0.30;0.10;;;;;;;0.01;100.00;93928.31;4241291;33;20672;-76
2021/01/23 00:40:34;;;;;;;0.08;0.08;;;;;;;-0.17;100.00;93914.78;4241911;33;20683;-75
2021/01/23 00:43:00;;;;;;;0.00;0.00;;;;;;;-0.17;100.00;93924.16;4241614;33;20599;-75
2021/01/23 00:45:25;;;;;;;0.60;0.10;;;;;;;-0.21;100.00;93920.13;4232955;33;20231;-74
2021/01/23 00:47:51;;;;;;;0.40;0.20;;;;;;;-0.23;100.00;93925.25;4229768;34;20243;-75
2021/01/23 00:50:17;;;;;;;0.30;0.20;;;;;;;-0.12;100.00;93929.81;4230138;34;20326;-75
2021/01/23 00:52:42;;;;;;;0.10;0.10;;;;;;;-0.16;100.00;93935.97;4202309;34;20247;-75
2021/01/23 00:55:08;;;;;;;0.20;0.10;;;;;;;-0.18;100.00;93932.69;4211076;34;20240;-75
2021/01/23 00:57:34;;;;;;;0.40;0.20;;;;;;;-0.18;100.00;93932.69;4229928;34;20254;-75
2021/01/23 00:59:59;;;;;;;0.40;0.20;;;;;;;-0.19;100.00;93941.19;4229937;34;20258;-76
2021/01/23 01:02:25;;;;;;;0.00;0.00;;;;;;;-0.18;100.00;93937.78;4229904;33;20267;-75
2021/01/23 01:04:50;;;;;;;0.08;0.08;;;;;;;-0.16;100.00;93941.03;4217581;33;20233;-77
2021/01/23 01:07:16;;;;;;;0.40;0.30;;;;;;;-0.16;100.00;93948.69;4228376;33;20247;-75
2021/01/23 01:09:42;;;;;;;0.03;0.03;;;;;;;-0.15;100.00;93948.63;4236748;33;20625;-76
2021/01/23 01:12:07;;;;;;;0.17;0.10;;;;;;;-0.12;100.00;93966.25;4244158;33;20308;-76
2021/01/23 01:14:33;;;;;;;0.60;0.10;;;;;;;-0.04;100.00;93970.94;4231661;33;20233;-76
2021/01/23 01:16:58;;;;;;;0.00;0.00;;;;;;;-0.10;100.00;93967.00;4220744;33;20231;-76
2021/01/23 01:19:24;;;;;;;0.10;0.10;;;;;;;-0.04;100.00;93968.41;4236431;33;20244;-77
2021/01/23 01:21:50;;;;;;;0.30;0.10;;;;;;;0.01;100.00;93973.28;4237017;33;20291;-76
2021/01/23 01:24:15;;;;;;;0.20;0.10;;;;;;;0.03;100.00;93974.03;4244321;33;20297;-78
2021/01/23 01:26:41;;;;;;;0.17;0.17;;;;;;;0.06;100.00;93984.88;4230702;33;20297;-77
2021/01/23 01:29:07;;;;;;;1.10;0.30;;;;;;;0.05;100.00;93977.31;4238259;33;20478;-77
2021/01/23 01:31:32;;;;;;;0.80;0.30;;;;;;;-0.04;100.00;93997.25;4230282;33;20248;-75
2021/01/23 01:33:58;;;;;;;0.70;0.40;;;;;;;-0.03;100.00;93992.97;4229607;34;20244;-75
2021/01/23 01:36:23;;;;;;;0.90;0.20;;;;;;;0.00;100.00;93992.84;4233835;33;20285;-75
2021/01/23 01:38:49;;;;;;;0.50;0.30;;;;;;;0.00;100.00;93987.75;4244059;33;20638;-75
2021/01/23 01:41:15;;;;;;;1.05;0.28;;;;;;;-0.02;100.00;93992.06;4229950;33;20669;-75
2021/01/23 01:43:40;;;;;;;0.32;0.32;;;;;;;-0.05;100.00;93995.59;4243841;33;20679;-76
2021/01/23 01:46:06;;;;;;;0.53;0.30;;;;;;;-0.02;100.00;94005.63;4237800;33;20649;-75
2021/01/23 01:48:32;;;;;;;0.30;0.30;;;;;;;-0.02;100.00;94002.25;4229810;34;20240;-75
2021/01/23 01:50:57;;;;;;;0.30;0.30;;;;;;;0.01;100.00;94009.75;4229792;34;20287;-75
2021/01/23 01:53:23;;;;;;;0.20;0.13;;;;;;;-0.06;100.00;94016.84;4229690;33;20256;-75
2021/01/23 01:55:49;;;;;;;0.10;0.10;;;;;;;-0.01;100.00;94024.25;4229607;34;20275;-75
2021/01/23 01:58:14;;;;;;;0.00;0.00;;;;;;;-0.03;100.00;94021.78;4230103;33;20232;-75
2021/01/23 02:00:40;;;;;;;0.00;0.00;;;;;;;-0.01;100.00;94026.78;4243161;33;20647;-75
2021/01/23 02:03:05;;;;;;;0.20;0.17;;;;;;;-0.02;100.00;94027.69;4224570;33;20648;-75
2021/01/23 02:05:31;;;;;;;0.10;0.10;;;;;;;-0.04;100.00;94035.44;4238502;33;20731;-76
2021/01/23 02:07:57;;;;;;;0.00;0.00;;;;;;;-0.08;100.00;94028.81;4236485;33;20806;-75
2021/01/23 02:10:22;;;;;;;0.35;0.10;;;;;;;-0.10;100.00;94034.91;4229315;34;20934;-75
2021/01/23 02:12:48;;;;;;;0.10;0.10;;;;;;;-0.10;100.00;94045.91;4233068;33;20721;-74
2021/01/23 02:15:13;;;;;;;0.50;0.17;;;;;;;-0.08;100.00;94046.63;4225878;33;20582;-76
2021/01/23 02:17:39;;;;;;;0.73;0.40;;;;;;;-0.08;100.00;94054.25;4229226;34;20692;-76
2021/01/23 02:20:05;;;;;;;0.10;0.10;;;;;;;-0.01;100.00;94059.88;4229338;34;20705;-75
2021/01/23 02:22:30;;;;;;;0.40;0.10;;;;;;;-0.06;100.00;94074.56;4229372;34;20754;-75
2021/01/23 02:24:56;;;;;;;0.17;0.10;;;;;;;0.00;100.00;94076.81;4228984;34;20789;-75
2021/01/23 02:27:22;;;;;;;0.40;0.20;;;;;;;0.02;100.00;94080.09;4238664;33;20284;-76
2021/01/23 02:29:47;;;;;;;0.13;0.10;;;;;;;-0.05;100.00;94087.19;4243433;33;20293;-75
2021/01/23 02:32:13;;;;;;;0.40;0.20;;;;;;;-0.07;100.00;94089.00;4223966;33;20561;-75
2021/01/23 02:34:38;;;;;;;0.40;0.30;;;;;;;-0.06;100.00;94089.84;4215318;34;20666;-75
2021/01/23 02:37:04;;;;;;;0.80;0.30;;;;;;;-0.06;100.00;94089.84;4214929;34;20241;-75
